Time;durP1;ratioP1;P1;durP2;ratioP2;P2;SDS_P1;SDS_P2;PMS_P1;PMS_P2;Temp;Humidity;BMP_temperature;BMP_pressure;BME280_temperature;BME280_humidity;BME280_pressure;Samples;Min_cycle;Max_cycle;Signal;HPM_P1;HPM_P2
2022/12/08 02:35:04;;;;;;;19.83;10.70;;;2.60;99.90;;;;;;6095597;22;20033;-82
2022/12/08 05:27:04;;;;;;;15.60;10.10;;;2.40;99.90;;;;;;5024999;28;20045;-83
2022/12/08 05:33:54;;;;;;;20.00;10.93;;;2.50;99.90;;;;;;5023435;28;20061;-84
2022/12/08 05:36:20;;;;;;;16.50;9.93;;;2.60;99.90;;;;;;5007853;28;20045;-84
2022/12/08 05:38:51;;;;;;;17.15;10.18;;;2.60;99.90;;;;;;4986107;28;20462;-84
2022/12/08 05:41:46;;;;;;;;;;;2.60;99.90;;;;;;4987694;28;20030;-84
2022/12/08 05:45:39;;;;;;;17.83;10.85;;;2.60;99.90;;;;;;4945619;29;20364;-85
2022/12/08 05:48:07;;;;;;;18.05;11.00;;;2.60;99.90;;;;;;5006141;28;20113;-83
2022/12/08 05:54:15;;;;;;;18.30;11.05;;;2.60;99.90;;;;;;5003514;28;20107;-84
2022/12/08 05:57:01;;;;;;;15.65;9.15;;;2.50;99.90;;;;;;4977896;28;20023;-84
2022/12/08 05:59:30;;;;;;;20.15;11.80;;;2.50;99.90;;;;;;4997543;28;20111;-84
2022/12/08 06:01:56;;;;;;;17.27;10.20;;;2.50;99.90;;;;;;5004374;28;20022;-84
2022/12/08 06:04:28;;;;;;;17.77;10.52;;;2.50;99.90;;;;;;5007661;28;20041;-84
2022/12/08 06:07:02;;;;;;;16.13;9.88;;;2.50;99.90;;;;;;5006982;28;20030;-84
2022/12/08 06:09:30;;;;;;;18.85;11.13;;;2.50;99.90;;;;;;5006836;28;20105;-82
2022/12/08 06:11:59;;;;;;;18.38;10.75;;;2.50;99.90;;;;;;5006200;28;20022;-84
2022/12/08 06:14:27;;;;;;;18.13;10.15;;;2.50;99.90;;;;;;5023843;28;20018;-83
2022/12/08 06:16:56;;;;;;;15.27;9.23;;;2.50;99.90;;;;;;5023766;28;20018;-84
2022/12/08 06:19:29;;;;;;;16.33;9.30;;;2.50;99.90;;;;;;5024296;28;20073;-84
2022/12/08 06:21:55;;;;;;;17.10;9.95;;;2.50;99.90;;;;;;5005764;28;20026;-83
2022/12/08 06:24:23;;;;;;;18.27;10.07;;;2.50;99.90;;;;;;5005240;28;20029;-84
2022/12/08 06:26:49;;;;;;;14.88;9.85;;;2.50;99.90;;;;;;4988368;28;20050;-84
2022/12/08 06:29:15;;;;;;;15.48;9.82;;;2.60;99.90;;;;;;5008522;28;20037;-83
2022/12/08 06:31:41;;;;;;;17.73;9.85;;;2.50;99.90;;;;;;5018213;28;20037;-84
2022/12/08 06:34:06;;;;;;;16.38;10.32;;;2.50;99.90;;;;;;4998978;28;20447;-83
2022/12/08 06:36:33;;;;;;;18.13;10.35;;;2.50;99.90;;;;;;5009600;28;20038;-84
2022/12/08 06:39:01;;;;;;;14.90;9.45;;;2.50;99.90;;;;;;5026930;28;20479;-83
2022/12/08 06:41:27;;;;;;;15.75;9.05;;;2.50;99.90;;;;;;5005171;28;20034;-84
2022/12/08 06:44:08;;;;;;;20.05;10.63;;;2.50;99.90;;;;;;5006745;28;20033;-84
2022/12/08 06:46:36;;;;;;;16.95;10.85;;;2.50;99.90;;;;;;5015475;28;20040;-83
2022/12/08 06:49:02;;;;;;;19.42;11.32;;;2.40;99.90;;;;;;4997260;28;20026;-86
2022/12/08 06:51:28;;;;;;;18.73;11.48;;;2.40;99.90;;;;;;4985642;28;20027;-84
2022/12/08 06:53:54;;;;;;;17.75;11.30;;;2.40;99.90;;;;;;4986989;28;20033;-84
2022/12/08 06:56:28;;;;;;;17.73;11.32;;;2.40;99.90;;;;;;4991501;28;20112;-83
2022/12/08 06:58:54;;;;;;;17.15;10.57;;;2.40;99.90;;;;;;4996791;28;20038;-83
2022/12/08 07:02:12;;;;;;;16.42;10.18;;;2.40;99.90;;;;;;4997656;28;20030;-84
2022/12/08 07:04:40;;;;;;;19.85;11.75;;;2.40;99.90;;;;;;5007162;28;20049;-83
2022/12/08 07:07:06;;;;;;;23.35;12.73;;;2.40;99.90;;;;;;5008385;28;20030;-81
2022/12/08 07:09:32;;;;;;;22.52;13.07;;;2.40;99.90;;;;;;5017995;28;20023;-84
2022/12/08 07:11:58;;;;;;;22.45;11.68;;;2.20;99.90;;;;;;4995899;28;20038;-85
2022/12/08 07:14:32;;;;;;;20.05;12.10;;;2.20;99.90;;;;;;4989213;28;20026;-84
2022/12/08 07:17:01;;;;;;;22.50;12.07;;;2.20;99.90;;;;;;4997372;28;20021;-86
2022/12/08 07:19:53;;;;;;;16.65;10.43;;;2.20;99.90;;;;;;5006729;28;20050;-85
2022/12/08 07:22:22;;;;;;;18.20;10.73;;;2.20;99.90;;;;;;5008090;28;20042;-84
2022/12/08 07:24:48;;;;;;;21.55;12.52;;;2.30;99.90;;;;;;5025313;28;20053;-85
2022/12/08 07:27:50;;;;;;;25.08;12.68;;;2.40;99.90;;;;;;5007497;28;20025;-85
2022/12/08 07:30:34;;;;;;;20.67;12.15;;;2.50;99.90;;;;;;5010069;28;20034;-86
2022/12/08 07:33:03;;;;;;;22.17;12.23;;;2.50;99.90;;;;;;5010878;28;20088;-84
2022/12/08 07:35:32;;;;;;;22.55;11.60;;;2.50;99.90;;;;;;5007217;28;20049;-86
2022/12/08 07:38:21;;;;;;;23.17;12.95;;;2.60;99.90;;;;;;5026224;28;20021;-85
2022/12/08 07:40:53;;;;;;;23.23;13.13;;;2.60;99.90;;;;;;5009974;28;20086;-86
2022/12/08 07:44:11;;;;;;;21.67;11.93;;;2.80;99.90;;;;;;5008740;28;20060;-86
2022/12/08 07:46:47;;;;;;;;;;;;;;;;;;;;;
2022/12/08 07:49:13;;;;;;;17.63;10.07;;;3.20;99.90;;;;;;4986969;28;20110;-84
2022/12/08 07:51:39;;;;;;;20.10;10.75;;;3.20;99.90;;;;;;4982833;28;20034;-84
2022/12/08 07:54:04;;;;;;;16.25;9.75;;;3.30;99.90;;;;;;4984047;28;20023;-85
2022/12/08 07:56:30;;;;;;;16.67;9.85;;;3.40;99.90;;;;;;4988205;28;20031;-84
2022/12/08 07:58:56;;;;;;;16.73;10.73;;;3.40;99.90;;;;;;5007368;28;20034;-84
2022/12/08 08:01:47;;;;;;;16.05;9.32;;;3.40;99.90;;;;;;4998880;28;20136;-83
2022/12/08 08:04:12;;;;;;;13.77;8.73;;;3.50;99.90;;;;;;4986921;28;20036;-84
2022/12/08 08:06:38;;;;;;;15.68;9.52;;;3.50;99.90;;;;;;5003464;28;20058;-85
2022/12/08 08:09:08;;;;;;;15.15;9.60;;;3.60;99.90;;;;;;4987047;28;20030;-87
2022/12/08 08:11:37;;;;;;;15.18;8.80;;;3.70;99.90;;;;;;4987308;28;20407;-86
2022/12/08 08:14:03;;;;;;;14.00;8.60;;;3.80;99.90;;;;;;4970733;28;20026;-84
2022/12/08 08:16:28;;;;;;;13.52;7.82;;;3.90;99.90;;;;;;4986553;28;20113;-84
2022/12/08 08:19:02;;;;;;;13.13;7.65;;;4.00;99.90;;;;;;5000001;28;20032;-87
2022/12/08 08:21:47;;;;;;;13.63;8.27;;;4.20;99.90;;;;;;5006152;28;20022;-85
2022/12/08 08:24:24;;;;;;;14.00;7.88;;;4.20;99.90;;;;;;5006399;28;20093;-84
2022/12/08 08:26:54;;;;;;;11.65;7.25;;;4.20;99.90;;;;;;5006938;28;20040;-84
2022/12/08 08:29:58;;;;;;;;;;;;;;;;;;;;;
2022/12/08 08:32:24;;;;;;;13.10;7.82;;;4.30;99.70;;;;;;5005839;28;20046;-84
2022/12/08 08:34:51;;;;;;;13.38;7.97;;;4.40;99.10;;;;;;5007248;28;20030;-84
2022/12/08 08:37:16;;;;;;;15.85;9.75;;;4.50;98.70;;;;;;4991727;28;20459;-83
2022/12/08 08:39:47;;;;;;;18.95;11.52;;;4.50;97.90;;;;;;5005075;28;20033;-85
2022/12/08 08:42:13;;;;;;;22.67;12.20;;;4.40;97.60;;;;;;5012582;28;20034;-83
2022/12/08 08:44:41;;;;;;;19.80;12.80;;;4.30;98.20;;;;;;5010659;28;20113;-81
2022/12/08 08:47:06;;;;;;;18.92;11.43;;;4.20;98.90;;;;;;5016173;28;20018;-82
2022/12/08 08:49:32;;;;;;;19.42;11.07;;;4.10;99.50;;;;;;5005590;28;20113;-83
2022/12/08 08:52:02;;;;;;;19.23;11.38;;;4.10;99.90;;;;;;5016266;28;20026;-84
2022/12/08 08:54:34;;;;;;;18.40;11.23;;;4.10;99.90;;;;;;5011008;28;20026;-85
2022/12/08 08:57:00;;;;;;;22.93;13.53;;;4.10;99.90;;;;;;5011284;28;20276;-84
2022/12/08 08:59:26;;;;;;;19.90;11.93;;;4.20;99.90;;;;;;5017422;28;20257;-83
2022/12/08 09:01:53;;;;;;;18.75;11.00;;;4.20;99.90;;;;;;5017878;28;20010;-83
2022/12/08 09:04:20;;;;;;;15.77;10.35;;;4.40;99.90;;;;;;5016902;28;20085;-83
2022/12/08 09:06:46;;;;;;;18.40;10.13;;;4.50;99.90;;;;;;5016100;28;20032;-84
2022/12/08 09:09:16;;;;;;;21.40;13.18;;;4.60;99.60;;;;;;5011858;28;20038;-85
2022/12/08 09:11:45;;;;;;;26.23;14.02;;;4.70;99.00;;;;;;5007510;28;20098;-85
2022/12/08 09:14:14;;;;;;;23.52;13.23;;;4.70;98.10;;;;;;4992276;28;20506;-83
2022/12/08 09:16:41;;;;;;;23.40;12.75;;;4.50;98.50;;;;;;5034977;28;20022;-83
2022/12/08 09:19:07;;;;;;;20.92;12.98;;;4.40;98.80;;;;;;5014124;28;20117;-84
2022/12/08 09:21:32;;;;;;;21.25;12.40;;;4.40;99.10;;;;;;5024372;28;20033;-84
2022/12/08 09:23:58;;;;;;;27.80;12.70;;;4.50;99.30;;;;;;5006727;28;20475;-85
2022/12/08 09:26:26;;;;;;;20.67;13.30;;;4.50;98.90;;;;;;5024102;28;20105;-85
2022/12/08 09:28:53;;;;;;;23.90;14.27;;;4.40;98.90;;;;;;5025505;28;20037;-85
2022/12/08 09:31:20;;;;;;;20.58;11.82;;;4.40;99.00;;;;;;4998631;28;20031;-85
2022/12/08 09:33:47;;;;;;;22.67;13.10;;;4.30;99.20;;;;;;4992394;28;20034;-82
2022/12/08 09:36:13;;;;;;;20.80;13.85;;;4.30;99.30;;;;;;4999309;28;20024;-82
2022/12/08 09:38:39;;;;;;;19.65;12.10;;;4.20;99.40;;;;;;5016647;28;20034;-83
2022/12/08 09:41:44;;;;;;;23.58;12.35;;;4.20;99.60;;;;;;5016549;28;20014;-83
2022/12/08 09:44:25;;;;;;;23.38;12.18;;;4.20;99.90;;;;;;5024449;28;20121;-83
2022/12/08 09:46:52;;;;;;;30.33;13.82;;;4.20;99.90;;;;;;5015812;28;20018;-83
2022/12/08 09:49:22;;;;;;;23.40;13.60;;;4.30;99.90;;;;;;5015935;28;20102;-83
2022/12/08 09:51:49;;;;;;;21.25;12.55;;;4.40;99.60;;;;;;5015731;28;20075;-84
2022/12/08 09:54:46;;;;;;;21.67;13.07;;;4.40;99.60;;;;;;4997398;28;20031;-85
2022/12/08 09:57:15;;;;;;;21.77;13.15;;;4.40;99.30;;;;;;5009267;28;20039;-84
2022/12/08 10:00:05;;;;;;;23.23;12.93;;;4.50;99.20;;;;;;5014393;28;20022;-86
2022/12/08 10:02:31;;;;;;;20.50;13.18;;;4.50;99.10;;;;;;5006642;28;20021;-85
2022/12/08 10:04:58;;;;;;;26.20;14.90;;;4.50;99.00;;;;;;5016290;28;20018;-85
2022/12/08 10:07:45;;;;;;;24.48;13.13;;;4.50;99.10;;;;;;5033512;28;20030;-83
2022/12/08 10:10:46;;;;;;;21.95;13.50;;;4.40;99.10;;;;;;5017305;28;20049;-83
2022/12/08 10:13:26;;;;;;;22.23;13.40;;;4.50;99.10;;;;;;5022802;28;20034;-84
2022/12/08 10:16:16;;;;;;;22.05;13.93;;;4.70;99.00;;;;;;5027901;28;20082;-81
2022/12/08 10:18:42;;;;;;;23.38;14.15;;;4.80;98.60;;;;;;5021132;28;20014;-83
2022/12/08 10:21:21;;;;;;;22.45;13.60;;;4.90;97.50;;;;;;5020132;28;20060;-83
2022/12/08 10:23:54;;;;;;;23.77;12.80;;;4.90;97.10;;;;;;5020108;28;20034;-84
2022/12/08 10:26:21;;;;;;;25.40;13.63;;;4.80;97.50;;;;;;5037201;28;20061;-83
2022/12/08 10:28:47;;;;;;;25.10;14.05;;;4.80;97.90;;;;;;5019269;28;20144;-84
2022/12/08 10:31:21;;;;;;;21.08;13.68;;;4.70;97.80;;;;;;5020305;28;20091;-83
2022/12/08 10:34:13;;;;;;;24.00;13.48;;;4.60;97.90;;;;;;5038651;28;20026;-82
2022/12/08 10:36:52;;;;;;;23.63;14.27;;;4.40;97.90;;;;;;5038043;28;20010;-83
2022/12/08 10:39:39;;;;;;;21.38;13.00;;;4.30;98.30;;;;;;5038617;28;20010;-84
2022/12/08 10:42:19;;;;;;;24.98;15.30;;;4.20;98.50;;;;;;5021370;28;20025;-82
2022/12/08 10:44:48;;;;;;;25.25;14.85;;;4.20;98.50;;;;;;5019399;28;20045;-83
2022/12/08 10:47:14;;;;;;;24.63;14.90;;;4.20;98.70;;;;;;5020282;28;20018;-82
2022/12/08 10:49:40;;;;;;;24.35;14.60;;;4.20;98.20;;;;;;5018747;28;20049;-84
2022/12/08 10:52:24;;;;;;;25.75;15.68;;;4.20;98.20;;;;;;5017895;28;20014;-84
2022/12/08 10:54:53;;;;;;;24.40;13.43;;;4.20;98.60;;;;;;5014685;28;20029;-84
2022/12/08 10:57:22;;;;;;;30.75;15.38;;;4.20;98.80;;;;;;5018223;28;20021;-85
2022/12/08 10:59:48;;;;;;;22.30;13.32;;;4.30;98.90;;;;;;5018073;28;20045;-85
2022/12/08 11:02:20;;;;;;;28.50;15.80;;;4.40;98.90;;;;;;5017992;28;20073;-83
2022/12/08 11:04:55;;;;;;;32.10;17.67;;;4.50;98.60;;;;;;5020294;28;20025;-82
2022/12/08 11:07:24;;;;;;;27.73;16.10;;;4.60;97.80;;;;;;5018598;28;20048;-84
2022/12/08 11:09:54;;;;;;;27.52;15.43;;;4.50;97.70;;;;;;5015199;28;20034;-85
2022/12/08 11:12:22;;;;;;;26.23;14.65;;;4.50;98.20;;;;;;5006602;28;20069;-86
2022/12/08 11:15:38;;;;;;;26.83;15.77;;;4.40;97.90;;;;;;5013161;28;20040;-85
2022/12/08 11:18:21;;;;;;;28.90;14.52;;;4.30;98.00;;;;;;5018397;28;20014;-83
2022/12/08 11:20:56;;;;;;;28.42;16.27;;;4.20;98.40;;;;;;5017409;28;20109;-84
2022/12/08 11:24:23;;;;;;;26.52;15.32;;;4.10;98.40;;;;;;5036534;28;20018;-81
2022/12/08 11:27:14;;;;;;;24.23;13.95;;;4.00;98.60;;;;;;5011870;28;20110;-86
2022/12/08 11:30:08;;;;;;;24.30;14.50;;;4.10;98.70;;;;;;5020759;28;20093;-85
2022/12/08 11:33:50;;;;;;;28.52;15.10;;;4.30;98.90;;;;;;4988866;28;20026;-84
2022/12/08 11:37:41;;;;;;;;;;;;;;;;;;;;;
2022/12/08 11:41:04;;;;;;;;;;;;;;;;;;;;;
2022/12/08 11:44:14;;;;;;;24.50;13.48;;;4.50;97.00;;;;;;4864077;29;20141;-84
2022/12/08 11:47:54;;;;;;;;;;;;;;;;;;;;;
2022/12/08 11:50:47;;;;;;;25.70;15.25;;;4.40;98.10;;;;;;4847012;29;20070;-86
2022/12/08 11:56:28;;;;;;;22.45;13.45;;;4.50;97.90;;;;;;4903235;29;20064;-84
2022/12/08 11:59:11;;;;;;;27.77;15.10;;;4.60;97.60;;;;;;4909765;29;20041;-83
2022/12/08 12:15:44;;;;;;;21.70;13.02;;;4.80;96.50;;;;;;5005228;28;20029;-84
2022/12/08 12:18:45;;;;;;;27.38;14.27;;;4.90;96.40;;;;;;5016620;28;20034;-84
2022/12/08 12:21:57;;;;;;;24.60;13.77;;;4.90;95.80;;;;;;5005936;28;20022;-84
2022/12/08 12:25:07;;;;;;;22.52;13.32;;;4.90;95.60;;;;;;4981799;28;20127;-84
2022/12/08 12:27:40;;;;;;;23.38;13.27;;;4.80;95.60;;;;;;4951238;28;20133;-85
2022/12/08 12:31:00;;;;;;;23.85;14.48;;;4.70;95.30;;;;;;5001482;28;20491;-84
2022/12/08 12:33:32;;;;;;;22.33;12.73;;;4.70;95.20;;;;;;5000653;28;20050;-84
2022/12/08 12:36:03;;;;;;;19.23;12.48;;;4.70;95.30;;;;;;4981514;28;20053;-84
2022/12/08 12:49:18;;;;;;;21.08;13.45;;;4.60;94.90;;;;;;5005092;28;20045;-85
2022/12/08 13:02:44;;;;;;;24.45;14.07;;;4.50;94.50;;;;;;4963617;28;20094;-84
2022/12/08 13:08:51;;;;;;;;;;;;;;;;;;;;;
2022/12/08 13:11:46;;;;;;;22.10;13.00;;;4.50;94.60;;;;;;4961048;28;20115;-85
2022/12/08 13:14:29;;;;;;;30.33;12.05;;;4.50;94.50;;;;;;4983148;28;20043;-84
2022/12/08 13:17:26;;;;;;;20.33;12.40;;;4.60;94.70;;;;;;4989474;28;20145;-85
2022/12/08 13:20:33;;;;;;;24.23;13.20;;;4.60;94.60;;;;;;5008566;28;20370;-84
2022/12/08 13:23:41;;;;;;;20.20;12.15;;;4.60;94.20;;;;;;5028464;28;20042;-83
2022/12/08 13:26:31;;;;;;;21.10;12.25;;;4.50;94.50;;;;;;5017924;28;20043;-82
2022/12/08 13:29:42;;;;;;;22.02;12.98;;;4.50;94.20;;;;;;5029698;28;20027;-83
2022/12/08 13:32:28;;;;;;;19.52;11.75;;;4.50;94.10;;;;;;4972396;28;20032;-83
2022/12/08 13:38:54;;;;;;;26.48;14.10;;;4.60;94.40;;;;;;5015571;28;20326;-84
2022/12/08 13:45:20;;;;;;;18.92;11.35;;;4.60;94.20;;;;;;5019061;28;20033;-82
2022/12/08 13:47:50;;;;;;;17.63;11.13;;;4.50;94.40;;;;;;4997794;28;20014;-83
2022/12/08 13:51:15;;;;;;;22.58;13.57;;;4.60;94.50;;;;;;5025020;28;20045;-85
2022/12/08 13:54:40;;;;;;;20.45;12.57;;;4.50;94.30;;;;;;4949202;29;20098;-86
2022/12/08 14:03:58;;;;;;;27.77;13.27;;;4.20;95.80;;;;;;4996043;28;20046;-83
2022/12/08 14:07:08;;;;;;;22.73;13.88;;;4.10;96.10;;;;;;4977561;28;20116;-82
2022/12/08 14:09:54;;;;;;;24.98;14.18;;;4.00;96.20;;;;;;5000751;28;20145;-84
2022/12/08 14:16:08;;;;;;;27.42;13.93;;;3.90;96.90;;;;;;5019872;28;20092;-84
2022/12/08 14:18:58;;;;;;;27.02;14.23;;;3.80;97.30;;;;;;5006830;28;20025;-85
2022/12/08 14:22:22;;;;;;;24.23;14.82;;;3.70;97.70;;;;;;5005893;28;20026;-83
2022/12/08 14:26:02;;;;;;;28.25;15.38;;;3.70;97.90;;;;;;5002697;28;20049;-84
2022/12/08 14:28:52;;;;;;;29.77;15.65;;;3.80;98.10;;;;;;4998734;28;20046;-83
2022/12/08 14:32:17;;;;;;;25.23;15.05;;;3.80;98.10;;;;;;4964907;29;20124;-84
2022/12/08 14:35:26;;;;;;;25.63;15.32;;;3.80;98.20;;;;;;4985678;28;20088;-84
2022/12/08 14:37:56;;;;;;;28.33;15.65;;;3.70;98.50;;;;;;4983803;28;20476;-84
2022/12/08 14:40:31;;;;;;;24.98;13.85;;;3.70;98.50;;;;;;5010353;28;20505;-85
2022/12/08 14:43:09;;;;;;;29.95;15.23;;;3.70;98.50;;;;;;4994650;28;20080;-85
2022/12/08 14:45:38;;;;;;;24.40;14.82;;;3.70;98.40;;;;;;5013102;28;20067;-85
2022/12/08 14:48:25;;;;;;;25.15;14.77;;;3.70;98.50;;;;;;5025434;28;20106;-84
2022/12/08 14:51:06;;;;;;;24.23;14.80;;;3.60;98.80;;;;;;5009165;28;20038;-83
2022/12/08 14:53:40;;;;;;;26.55;15.10;;;3.60;99.00;;;;;;5010698;28;20033;-84
2022/12/08 14:56:32;;;;;;;26.13;14.27;;;3.60;99.00;;;;;;4994866;28;20027;-84
2022/12/08 14:59:17;;;;;;;26.95;15.30;;;3.50;99.10;;;;;;5014897;28;20034;-82
2022/12/08 15:01:47;;;;;;;28.55;14.95;;;3.50;99.30;;;;;;5016875;28;20026;-82
2022/12/08 15:04:13;;;;;;;25.17;14.80;;;3.40;99.50;;;;;;4998796;28;20102;-83
2022/12/08 15:07:11;;;;;;;26.15;15.18;;;3.40;99.60;;;;;;5017151;28;20044;-83
2022/12/08 15:09:48;;;;;;;27.15;15.73;;;3.30;99.80;;;;;;5000089;28;20084;-83
2022/12/08 15:12:14;;;;;;;26.42;15.02;;;3.30;99.70;;;;;;5018674;28;20049;-83
2022/12/08 15:14:53;;;;;;;27.48;15.27;;;3.20;99.80;;;;;;5018768;28;20149;-83
2022/12/08 15:17:39;;;;;;;31.08;16.52;;;3.20;99.90;;;;;;5015051;28;20111;-86
2022/12/08 15:20:35;;;;;;;26.75;14.45;;;3.20;99.90;;;;;;5001645;28;20105;-84
2022/12/08 15:23:01;;;;;;;24.85;14.65;;;3.10;99.90;;;;;;4997830;28;20042;-84
2022/12/08 15:25:27;;;;;;;26.50;15.48;;;3.20;99.90;;;;;;4986248;28;20100;-85
2022/12/08 15:27:55;;;;;;;31.98;16.45;;;3.10;99.90;;;;;;4984686;28;20030;-83
2022/12/08 15:30:21;;;;;;;29.98;14.95;;;3.20;99.90;;;;;;4987258;28;20089;-86
2022/12/08 15:32:52;;;;;;;28.92;16.80;;;3.10;99.90;;;;;;5003295;28;20037;-85
2022/12/08 15:35:43;;;;;;;25.45;15.05;;;3.10;99.90;;;;;;5003090;28;20073;-84
2022/12/08 15:38:32;;;;;;;30.48;15.77;;;3.00;99.90;;;;;;4997373;28;20493;-85
2022/12/08 15:41:12;;;;;;;27.20;15.80;;;3.00;99.90;;;;;;4998106;28;20428;-85
2022/12/08 15:57:44;;;;;;;30.02;16.33;;;3.00;99.90;;;;;;4959768;28;20372;-84
2022/12/08 16:00:59;;;;;;;;;;;;;;;;;;;;;
2022/12/08 16:04:30;;;;;;;26.25;15.45;;;2.80;99.90;;;;;;4975848;28;20129;-85
2022/12/08 16:07:47;;;;;;;28.30;16.60;;;2.90;99.90;;;;;;4986175;28;20035;-86
2022/12/08 16:10:23;;;;;;;27.63;15.27;;;2.90;99.90;;;;;;4989577;28;20050;-87
2022/12/08 16:16:20;;;;;;;30.13;15.98;;;2.80;99.90;;;;;;4998455;28;20034;-85
2022/12/08 16:26:08;;;;;;;;;;;;;;;;;;;;;
2022/12/08 16:28:34;;;;;;;24.02;13.68;;;2.90;99.90;;;;;;5000394;28;20062;-85
2022/12/08 16:31:16;;;;;;;25.40;14.75;;;3.00;99.90;;;;;;5000827;28;20046;-84
2022/12/08 16:33:42;;;;;;;25.08;14.68;;;3.00;99.90;;;;;;4999734;28;20021;-84
2022/12/08 16:36:08;;;;;;;25.75;14.73;;;3.00;99.90;;;;;;4996156;28;20050;-84
2022/12/08 16:38:35;;;;;;;28.45;15.68;;;3.00;99.90;;;;;;4992647;28;20541;-84
2022/12/08 16:43:44;;;;;;;26.33;15.05;;;2.90;99.90;;;;;;4995495;28;20041;-86
2022/12/08 16:46:25;;;;;;;29.98;16.42;;;2.90;99.90;;;;;;4978444;28;20030;-85
2022/12/08 16:49:10;;;;;;;25.30;14.35;;;2.90;99.90;;;;;;4994835;28;20025;-85
2022/12/08 16:54:28;;;;;;;27.67;15.90;;;2.80;99.90;;;;;;4991044;28;20023;-85
2022/12/08 16:57:02;;;;;;;29.92;16.30;;;2.80;99.90;;;;;;4984982;28;20031;-85
2022/12/08 16:59:52;;;;;;;27.92;15.77;;;2.70;99.90;;;;;;4974378;28;20039;-85
2022/12/08 17:02:38;;;;;;;26.63;14.65;;;2.70;99.90;;;;;;4972415;28;20031;-85
2022/12/08 17:05:16;;;;;;;30.40;16.67;;;2.70;99.90;;;;;;4971647;28;20054;-84
2022/12/08 17:07:46;;;;;;;27.90;16.15;;;2.60;99.90;;;;;;4985004;28;20119;-85
2022/12/08 17:11:17;;;;;;;31.63;17.27;;;2.60;99.90;;;;;;4988044;28;20045;-84
2022/12/08 17:16:44;;;;;;;29.25;16.40;;;2.50;99.90;;;;;;4991036;28;20026;-84
2022/12/08 17:19:14;;;;;;;31.63;16.65;;;2.50;99.90;;;;;;4988056;28;20042;-84
2022/12/08 17:21:41;;;;;;;29.67;16.98;;;2.60;99.90;;;;;;4989427;28;20038;-84
2022/12/08 17:24:07;;;;;;;33.28;16.70;;;2.50;99.90;;;;;;4972432;28;20039;-85
2022/12/08 17:26:34;;;;;;;34.83;17.13;;;2.50;99.90;;;;;;4975934;28;20053;-86
2022/12/08 17:29:02;;;;;;;28.13;15.98;;;2.50;99.90;;;;;;4992933;28;20046;-84
2022/12/08 17:31:31;;;;;;;31.95;16.50;;;2.40;99.90;;;;;;4988528;28;20027;-84
2022/12/08 17:34:09;;;;;;;28.48;17.02;;;2.40;99.90;;;;;;4996908;28;20025;-86
2022/12/08 17:36:35;;;;;;;28.52;15.38;;;2.40;99.90;;;;;;4995980;28;20027;-83
2022/12/08 17:39:15;;;;;;;;;;;;;;;;;;;;;
2022/12/08 17:42:26;;;;;;;28.17;14.98;;;2.30;99.90;;;;;;5010976;28;20061;-81
2022/12/08 17:48:57;;;;;;;;;;;;;;;;;;;;;
2022/12/08 18:23:01;;;;;;;;;;;;;;;;;;;;;
2022/12/08 18:33:04;;;;;;;34.42;17.98;;;1.70;99.90;;;;;;4997703;28;20132;-83
2022/12/08 19:11:08;;;;;;;35.67;18.23;;;1.30;99.90;;;;;;4907640;29;20105;-83
2022/12/08 19:18:04;;;;;;;;;;;;;;;;;;;;;
2022/12/08 19:28:14;;;;;;;35.83;19.67;;;1.20;99.90;;;;;;4823661;29;20042;-84
2022/12/08 19:34:07;;;;;;;;;;;1.10;99.90;;;;;;4988004;28;20038;-84
2022/12/08 19:37:16;;;;;;;32.95;16.20;;;1.10;99.90;;;;;;5020720;28;19904;-83
2022/12/08 20:06:47;;;;;;;;;;;;;;;;;;;;;
2022/12/08 20:10:24;;;;;;;;;;;;;;;;;;;;;
2022/12/08 20:30:16;;;;;;;;;;;;;;;;;;;;;
2022/12/08 20:54:38;;;;;;;37.25;19.17;;;0.40;99.90;;;;;;3692553;22;20101;-83
2022/12/08 21:47:07;;;;;;;36.15;19.38;;;0.20;99.90;;;;;;4265883;22;20052;-83
2022/12/08 21:49:55;;;;;;;;;;;;;;;;;;;;;
2022/12/08 21:52:32;;;;;;;30.45;17.55;;;0.20;99.90;;;;;;5034766;28;20014;-83
2022/12/08 21:55:25;;;;;;;;;;;;;;;;;;;;;
2022/12/08 21:58:06;;;;;;;31.25;17.33;;;0.20;99.90;;;;;;5030085;28;20553;-84
2022/12/08 22:00:34;;;;;;;32.70;17.88;;;0.20;99.90;;;;;;5014974;28;20029;-84
2022/12/08 22:03:41;;;;;;;32.15;17.05;;;0.20;99.90;;;;;;5014191;28;20014;-84
2022/12/08 22:06:21;;;;;;;38.33;20.20;;;0.20;99.90;;;;;;5012449;28;20046;-83
2022/12/08 22:08:56;;;;;;;42.17;20.83;;;0.30;99.90;;;;;;5034559;28;20048;-84
2022/12/08 22:11:41;;;;;;;33.72;18.88;;;0.30;99.90;;;;;;5035575;28;20009;-84
2022/12/08 22:14:16;;;;;;;30.02;17.48;;;0.40;99.90;;;;;;5037798;28;20037;-84
2022/12/08 22:17:07;;;;;;;37.45;18.42;;;0.40;99.90;;;;;;5034033;28;20079;-83
2022/12/08 22:20:10;;;;;;;32.75;17.35;;;0.50;99.90;;;;;;5019025;28;20034;-83
2022/12/08 22:22:54;;;;;;;32.50;17.52;;;0.50;99.90;;;;;;5019063;28;20038;-84
2022/12/08 22:25:28;;;;;;;31.10;16.35;;;0.60;99.90;;;;;;5018748;28;20019;-83
2022/12/08 22:32:02;;;;;;;32.35;17.52;;;0.70;99.90;;;;;;4944080;29;20059;-85
2022/12/08 22:34:57;;;;;;;31.95;17.50;;;0.70;99.90;;;;;;4980661;28;20083;-83
2022/12/08 22:40:10;;;;;;;33.58;16.48;;;0.80;99.90;;;;;;5034854;28;20146;-84
2022/12/08 22:42:43;;;;;;;29.65;15.80;;;0.80;99.90;;;;;;5038024;28;20101;-83
2022/12/08 22:45:54;;;;;;;33.65;17.05;;;0.80;99.90;;;;;;5054187;28;20072;-83
2022/12/08 22:49:14;;;;;;;;;;;;;;;;;;;;;
2022/12/08 22:51:43;;;;;;;35.95;18.38;;;0.80;99.90;;;;;;5017930;28;20073;-83
2022/12/08 22:54:18;;;;;;;37.80;19.52;;;0.80;99.90;;;;;;5018454;28;20019;-83
2022/12/08 22:56:44;;;;;;;36.25;18.33;;;0.80;99.90;;;;;;5016891;28;20019;-83
2022/12/08 22:59:12;;;;;;;34.65;18.48;;;0.70;99.90;;;;;;5016609;28;20053;-83
2022/12/08 23:01:38;;;;;;;27.90;16.70;;;0.70;99.90;;;;;;5018251;28;20014;-84
2022/12/08 23:04:15;;;;;;;29.95;16.45;;;0.60;99.90;;;;;;5018425;28;20026;-83
2022/12/08 23:06:41;;;;;;;29.70;16.25;;;0.60;99.90;;;;;;5013873;28;20030;-81
2022/12/08 23:09:12;;;;;;;31.10;16.23;;;0.50;99.90;;;;;;5025281;28;20140;-83
2022/12/08 23:11:38;;;;;;;30.20;15.48;;;0.40;99.90;;;;;;5037123;28;20068;-83
2022/12/08 23:14:03;;;;;;;26.73;15.38;;;0.30;99.90;;;;;;5043633;28;20028;-84
2022/12/08 23:16:32;;;;;;;33.10;17.25;;;0.30;99.90;;;;;;5035277;28;20018;-83
2022/12/08 23:18:58;;;;;;;28.77;15.90;;;0.30;99.90;;;;;;5030663;28;20060;-83
2022/12/08 23:21:26;;;;;;;31.83;16.88;;;0.30;99.90;;;;;;5016509;28;20102;-82
2022/12/08 23:23:52;;;;;;;38.20;16.48;;;0.20;99.90;;;;;;5016328;28;20042;-83
2022/12/08 23:26:26;;;;;;;32.58;16.30;;;0.20;99.90;;;;;;5014812;28;20038;-83
2022/12/08 23:28:52;;;;;;;29.92;15.88;;;0.20;99.90;;;;;;5014278;28;20038;-84
2022/12/08 23:31:18;;;;;;;33.53;14.35;;;0.20;99.90;;;;;;5015634;28;20018;-82
2022/12/08 23:33:44;;;;;;;24.83;14.25;;;0.30;99.90;;;;;;5016746;28;20025;-83
2022/12/08 23:36:11;;;;;;;23.67;13.30;;;0.40;99.90;;;;;;5006531;28;20022;-84
2022/12/08 23:38:37;;;;;;;27.15;15.00;;;0.40;99.90;;;;;;5000688;28;20258;-82
2022/12/08 23:41:05;;;;;;;23.08;13.02;;;0.50;99.90;;;;;;5000410;28;20033;-84
2022/12/08 23:43:31;;;;;;;23.15;13.10;;;0.60;99.90;;;;;;5009950;28;20030;-82
2022/12/08 23:45:57;;;;;;;27.17;13.98;;;0.60;99.90;;;;;;5033302;28;20036;-83
2022/12/08 23:48:23;;;;;;;24.27;14.00;;;0.60;99.90;;;;;;5038763;28;20397;-83
2022/12/08 23:50:49;;;;;;;25.02;14.05;;;0.70;99.90;;;;;;5024359;28;20416;-84
2022/12/08 23:53:15;;;;;;;24.95;14.05;;;0.70;99.90;;;;;;5018387;28;20025;-83
2022/12/08 23:55:40;;;;;;;23.52;13.32;;;0.70;99.90;;;;;;5019648;28;20037;-84
2022/12/08 23:58:07;;;;;;;25.00;13.48;;;0.80;99.90;;;;;;5023551;28;20041;-84
